createdAt,value
2022-08-27T00:01:00.649Z,98.19
2022-08-27T00:03:33.699Z,96.97
2022-08-27T00:06:06.218Z,97.96
2022-08-27T00:08:39.299Z,96.21
2022-08-27T00:11:11.891Z,95.89
2022-08-27T00:13:44.951Z,95.78
2022-08-27T00:16:20.424Z,95.13
2022-08-27T00:18:53.061Z,94.19
2022-08-27T00:21:25.891Z,93.48
2022-08-27T00:23:58.430Z,93.32
2022-08-27T00:26:31.041Z,94.55
2022-08-27T00:29:03.621Z,93.57
2022-08-27T00:31:36.129Z,94.02
2022-08-27T00:34:12.993Z,97.03
2022-08-27T00:36:45.960Z,99.28
2022-08-27T00:39:18.529Z,99.67
2022-08-27T00:41:51.161Z,99.78
2022-08-27T00:44:23.694Z,100.00
2022-08-27T00:47:01.911Z,100.00
2022-08-27T00:49:40.423Z,100.00
2022-08-27T00:52:22.315Z,99.99
2022-08-27T00:54:57.901Z,100.00
2022-08-27T00:57:31.202Z,100.00
2022-08-27T01:00:05.131Z,100.00
2022-08-27T01:02:37.681Z,99.86
2022-08-27T01:05:13.711Z,100.00
2022-08-27T01:07:50.361Z,100.00
2022-08-27T01:10:26.621Z,100.00
2022-08-27T01:12:59.981Z,100.00
2022-08-27T01:15:33.510Z,100.00
2022-08-27T01:18:07.634Z,100.00
2022-08-27T01:20:48.609Z,100.00
2022-08-27T01:23:28.899Z,100.00
2022-08-27T01:26:03.441Z,100.00
2022-08-27T01:28:37.545Z,100.00
2022-08-27T01:31:12.985Z,100.00
2022-08-27T01:33:57.890Z,100.00
2022-08-27T01:36:30.841Z,100.00
2022-08-27T01:39:03.769Z,100.00
2022-08-27T01:41:38.181Z,100.00
2022-08-27T01:44:12.500Z,100.00
2022-08-27T01:46:47.920Z,100.00
2022-08-27T01:49:20.340Z,100.00
2022-08-27T01:51:53.031Z,100.00
2022-08-27T01:54:26.189Z,100.00
2022-08-27T01:57:01.111Z,100.00
2022-08-27T01:59:39.567Z,100.00
2022-08-27T02:02:13.994Z,100.00
2022-08-27T02:04:47.150Z,100.00
2022-08-27T02:07:20.121Z,100.00
2022-08-27T02:09:52.499Z,100.00
2022-08-27T02:12:24.869Z,100.00
2022-08-27T02:14:57.138Z,100.00
2022-08-27T02:17:29.701Z,100.00
2022-08-27T02:20:02.401Z,100.00
2022-08-27T02:22:35.143Z,100.00
2022-08-27T02:25:11.727Z,100.00
2022-08-27T02:27:45.059Z,100.00
2022-08-27T02:30:17.446Z,100.00
2022-08-27T02:32:49.950Z,100.00
2022-08-27T02:35:25.351Z,100.00
2022-08-27T02:37:58.640Z,100.00
2022-08-27T02:40:31.492Z,100.00
2022-08-27T02:43:04.269Z,100.00
2022-08-27T02:45:36.912Z,100.00
2022-08-27T02:48:09.637Z,100.00
2022-08-27T02:50:42.481Z,100.00
2022-08-27T02:53:20.349Z,100.00
2022-08-27T02:56:21.931Z,100.00
2022-08-27T02:58:57.779Z,100.00
2022-08-27T03:01:35.617Z,100.00
2022-08-27T03:04:12.991Z,100.00
2022-08-27T03:06:51.510Z,100.00
2022-08-27T03:09:37.260Z,100.00
2022-08-27T03:12:36.021Z,100.00
2022-08-27T03:15:18.369Z,100.00
2022-08-27T03:18:09.619Z,100.00
2022-08-27T03:20:47.081Z,100.00
2022-08-27T03:23:23.478Z,100.00
2022-08-27T03:26:00.051Z,100.00
2022-08-27T03:28:35.822Z,100.00
2022-08-27T03:31:15.012Z,100.00
2022-08-27T03:33:47.790Z,100.00
2022-08-27T03:36:20.498Z,100.00
2022-08-27T03:38:53.059Z,100.00
2022-08-27T03:41:43.458Z,100.00
2022-08-27T03:44:21.767Z,100.00
2022-08-27T03:46:55.600Z,100.00
2022-08-27T03:49:27.921Z,100.00
2022-08-27T03:52:00.900Z,100.00
2022-08-27T03:54:36.098Z,100.00
2022-08-27T03:57:10.969Z,100.00
2022-08-27T03:59:43.210Z,100.00
2022-08-27T04:02:16.657Z,100.00
2022-08-27T04:04:47.327Z,100.00
2022-08-27T04:07:19.669Z,100.00
2022-08-27T04:09:52.329Z,100.00
2022-08-27T04:12:24.933Z,100.00
2022-08-27T04:14:57.212Z,100.00
2022-08-27T04:17:30.314Z,100.00
2022-08-27T04:20:34.109Z,100.00
2022-08-27T04:23:03.896Z,100.00
2022-08-27T04:25:40.241Z,100.00
2022-08-27T04:28:16.761Z,100.00
2022-08-27T04:30:52.419Z,100.00
2022-08-27T04:33:25.241Z,100.00
2022-08-27T04:36:03.149Z,100.00
2022-08-27T04:38:36.011Z,100.00
2022-08-27T04:41:23.616Z,100.00
2022-08-27T04:43:58.440Z,100.00
2022-08-27T04:46:32.401Z,100.00
2022-08-27T04:49:10.188Z,100.00
2022-08-27T04:51:43.425Z,100.00
2022-08-27T04:54:16.241Z,100.00
2022-08-27T04:56:47.391Z,100.00
2022-08-27T04:59:20.209Z,100.00
2022-08-27T05:01:52.864Z,100.00
2022-08-27T05:04:26.601Z,100.00
2022-08-27T05:06:59.621Z,100.00
2022-08-27T05:09:32.589Z,100.00
2022-08-27T05:12:08.269Z,100.00
2022-08-27T05:14:40.628Z,100.00
2022-08-27T05:17:12.907Z,100.00
2022-08-27T05:19:45.397Z,100.00
2022-08-27T05:22:17.720Z,100.00
2022-08-27T05:24:50.961Z,100.00
2022-08-27T05:27:21.369Z,100.00
2022-08-27T05:29:53.654Z,100.00
2022-08-27T05:32:25.926Z,100.00
2022-08-27T05:34:58.441Z,100.00
2022-08-27T05:37:30.688Z,100.00
2022-08-27T05:40:05.779Z,100.00
2022-08-27T05:42:38.206Z,100.00
2022-08-27T05:45:11.859Z,100.00
2022-08-27T05:47:47.369Z,100.00
2022-08-27T05:50:23.568Z,100.00
2022-08-27T05:52:56.571Z,100.00
2022-08-27T05:55:28.982Z,99.72
2022-08-27T05:58:01.362Z,99.21
2022-08-27T06:00:51.238Z,99.22
2022-08-27T06:03:23.820Z,97.22
2022-08-27T06:06:04.140Z,96.73
2022-08-27T06:08:37.213Z,92.97
2022-08-27T06:11:12.086Z,90.38
2022-08-27T06:13:46.231Z,89.54
2022-08-27T06:16:21.390Z,89.61
2022-08-27T06:18:59.458Z,86.68
2022-08-27T06:21:33.882Z,83.11
2022-08-27T06:24:08.240Z,83.31
2022-08-27T06:26:41.299Z,85.05
2022-08-27T06:29:14.749Z,82.50
2022-08-27T06:31:51.157Z,82.16
2022-08-27T06:34:27.539Z,79.20
2022-08-27T06:37:02.951Z,78.74
2022-08-27T06:39:41.680Z,77.80
2022-08-27T06:42:21.039Z,76.26
2022-08-27T06:44:56.590Z,78.24
2022-08-27T06:47:29.171Z,78.58
2022-08-27T06:50:01.741Z,77.57
2022-08-27T06:52:34.593Z,77.75
2022-08-27T06:55:07.910Z,77.22
2022-08-27T06:57:40.481Z,79.05
2022-08-27T07:00:17.087Z,77.46
2022-08-27T07:02:50.027Z,78.12
2022-08-27T07:05:22.919Z,75.93
2022-08-27T07:07:54.582Z,76.54
2022-08-27T07:10:26.792Z,73.50
2022-08-27T07:13:02.711Z,75.90
2022-08-27T07:15:35.513Z,75.76
2022-08-27T07:18:11.131Z,74.93
2022-08-27T07:20:45.410Z,74.64
2022-08-27T07:23:21.361Z,71.80
2022-08-27T07:25:54.042Z,73.58
2022-08-27T07:28:27.271Z,74.09
2022-08-27T07:30:59.592Z,74.54
2022-08-27T07:33:32.559Z,74.60
2022-08-27T07:36:05.748Z,73.49
2022-08-27T07:38:41.983Z,76.24
2022-08-27T07:41:15.686Z,71.91
2022-08-27T07:44:18.741Z,71.50
2022-08-27T07:46:55.459Z,68.48
2022-08-27T07:49:29.719Z,70.08
2022-08-27T07:52:02.071Z,71.04
2022-08-27T07:54:35.641Z,69.66
2022-08-27T07:57:08.179Z,65.45
2022-08-27T07:59:41.001Z,66.45
2022-08-27T08:02:16.043Z,64.70
2022-08-27T08:04:48.898Z,64.14
2022-08-27T08:07:25.751Z,63.63
2022-08-27T08:09:59.600Z,60.75
2022-08-27T08:12:35.525Z,63.07
2022-08-27T08:15:13.133Z,61.73
2022-08-27T08:17:48.779Z,58.36
2022-08-27T08:20:35.932Z,59.94
2022-08-27T08:23:15.434Z,60.18
2022-08-27T08:25:48.229Z,62.41
2022-08-27T08:28:21.097Z,62.42
2022-08-27T08:30:54.928Z,62.16
2022-08-27T08:33:28.741Z,61.64
2022-08-27T08:36:07.536Z,60.17
2022-08-27T08:38:40.536Z,61.88
2022-08-27T08:41:44.098Z,61.61
2022-08-27T08:44:27.046Z,63.15
2022-08-27T08:47:04.885Z,63.62
2022-08-27T08:49:53.419Z,62.40
2022-08-27T08:52:43.968Z,61.46
2022-08-27T08:55:29.576Z,60.61
2022-08-27T08:58:14.068Z,58.47
2022-08-27T09:00:54.028Z,58.12
2022-08-27T09:03:27.385Z,57.02
2022-08-27T09:06:03.248Z,56.18
2022-08-27T09:08:41.367Z,55.27
2022-08-27T09:11:22.988Z,55.29
2022-08-27T09:14:03.348Z,57.69
2022-08-27T09:16:35.773Z,54.28
2022-08-27T09:19:13.072Z,54.07
2022-08-27T09:21:53.458Z,53.50
2022-08-27T09:24:36.208Z,54.28
2022-08-27T09:27:12.721Z,54.41
2022-08-27T09:29:52.928Z,55.05
2022-08-27T09:32:29.026Z,55.59
2022-08-27T09:35:05.091Z,55.00
2022-08-27T09:37:44.866Z,53.37
2022-08-27T09:40:29.555Z,55.11
2022-08-27T09:43:09.957Z,53.39
2022-08-27T09:45:51.725Z,53.17
2022-08-27T09:48:27.548Z,55.84
2022-08-27T09:51:05.876Z,54.03
2022-08-27T09:53:44.939Z,54.28
2022-08-27T09:56:29.468Z,53.79
2022-08-27T09:59:08.948Z,55.01
2022-08-27T10:01:58.066Z,53.83
2022-08-27T10:04:38.078Z,53.21
2022-08-27T10:07:34.629Z,52.08
2022-08-27T10:10:15.354Z,53.14
2022-08-27T10:12:56.909Z,56.84
2022-08-27T10:15:36.555Z,53.81
2022-08-27T10:18:29.148Z,50.88
2022-08-27T10:21:11.801Z,49.93
2022-08-27T10:23:55.118Z,49.99
2022-08-27T10:26:35.437Z,50.66
2022-08-27T10:29:16.141Z,50.22
2022-08-27T10:32:04.341Z,50.58
2022-08-27T10:34:44.189Z,49.48
2022-08-27T10:37:36.834Z,47.93
2022-08-27T10:40:20.104Z,50.36
2022-08-27T10:43:03.987Z,50.57
2022-08-27T10:45:45.011Z,49.88
2022-08-27T10:48:30.446Z,49.77
2022-08-27T10:51:11.588Z,48.57
2022-08-27T10:53:52.929Z,49.46
2022-08-27T10:56:35.935Z,47.31
2022-08-27T10:59:25.378Z,44.82
2022-08-27T11:02:08.202Z,46.98
2022-08-27T11:04:41.458Z,49.92
2022-08-27T11:07:20.728Z,43.94
2022-08-27T11:09:58.078Z,44.12
2022-08-27T11:12:35.507Z,42.33
2022-08-27T11:15:13.199Z,43.26
2022-08-27T11:17:56.961Z,42.94
2022-08-27T11:20:33.617Z,41.19
2022-08-27T11:23:10.178Z,44.85
2022-08-27T11:25:52.834Z,42.92
2022-08-27T11:28:31.918Z,46.86
2022-08-27T11:31:14.068Z,45.14
2022-08-27T11:33:54.826Z,41.82
2022-08-27T11:37:04.325Z,43.98
2022-08-27T11:40:08.112Z,41.25
2022-08-27T11:42:43.484Z,41.57
2022-08-27T11:45:21.598Z,42.87
2022-08-27T11:47:59.305Z,41.51
2022-08-27T11:50:34.035Z,40.26
2022-08-27T11:53:08.586Z,41.67
2022-08-27T11:55:42.228Z,39.04
2022-08-27T11:58:28.617Z,40.10
2022-08-27T12:01:04.883Z,37.31
2022-08-27T12:03:38.307Z,37.80
2022-08-27T12:06:26.326Z,36.63
2022-08-27T12:09:15.938Z,34.38
2022-08-27T12:11:59.527Z,36.18
2022-08-27T12:14:44.365Z,37.82
2022-08-27T12:17:28.286Z,35.88
2022-08-27T12:20:20.220Z,37.95
2022-08-27T12:23:31.663Z,40.39
2022-08-27T12:26:28.827Z,39.30
2022-08-27T12:29:27.776Z,42.23
2022-08-27T12:32:21.805Z,37.64
2022-08-27T12:35:01.096Z,38.73
2022-08-27T12:37:39.066Z,40.14
2022-08-27T12:40:21.017Z,37.83
2022-08-27T12:43:13.197Z,37.22
2022-08-27T12:45:51.125Z,37.49
2022-08-27T12:48:27.737Z,36.35
2022-08-27T12:51:02.897Z,35.31
2022-08-27T12:53:52.246Z,35.80
2022-08-27T12:56:51.718Z,36.92
2022-08-27T12:59:44.046Z,35.92
2022-08-27T13:02:28.897Z,36.75
2022-08-27T13:05:10.141Z,36.02
2022-08-27T13:07:48.507Z,36.48
2022-08-27T13:10:25.748Z,35.29
2022-08-27T13:13:09.080Z,37.13
2022-08-27T13:15:46.000Z,34.17
2022-08-27T13:18:19.524Z,34.94
2022-08-27T13:20:53.627Z,35.03
2022-08-27T13:23:28.300Z,35.33
2022-08-27T13:26:08.316Z,34.96
2022-08-27T13:28:43.936Z,37.42
2022-08-27T13:31:18.867Z,35.04
2022-08-27T13:33:52.485Z,35.51
2022-08-27T13:36:33.638Z,35.93
2022-08-27T13:39:07.727Z,35.22
2022-08-27T13:41:42.888Z,34.73
2022-08-27T13:44:26.078Z,35.08
2022-08-27T13:47:06.098Z,36.84
2022-08-27T13:49:41.418Z,36.23
2022-08-27T13:52:25.677Z,35.64
2022-08-27T13:55:06.563Z,36.93
2022-08-27T13:57:46.859Z,34.24
2022-08-27T14:00:26.788Z,34.55
2022-08-27T14:03:01.582Z,34.31
2022-08-27T14:05:37.307Z,35.04
2022-08-27T14:08:18.386Z,35.86
2022-08-27T14:11:00.545Z,36.62
2022-08-27T14:13:38.766Z,36.44
2022-08-27T14:16:26.752Z,37.30
2022-08-27T14:19:06.239Z,36.35
2022-08-27T14:21:40.868Z,36.00
2022-08-27T14:24:14.156Z,37.01
2022-08-27T14:26:53.508Z,37.58
2022-08-27T14:29:25.736Z,36.46
2022-08-27T14:31:58.009Z,38.27
2022-08-27T14:34:31.916Z,38.55
2022-08-27T14:37:05.518Z,38.35
2022-08-27T14:39:42.277Z,39.61
2022-08-27T14:42:15.018Z,37.89
2022-08-27T14:44:48.007Z,39.52
2022-08-27T14:47:20.399Z,38.29
2022-08-27T14:49:52.958Z,39.07
2022-08-27T14:52:23.916Z,38.40
2022-08-27T14:54:56.157Z,36.72
2022-08-27T14:57:26.787Z,37.68
2022-08-27T14:59:59.085Z,38.18
2022-08-27T15:02:29.918Z,36.99
2022-08-27T15:05:12.054Z,38.44
2022-08-27T15:07:47.378Z,37.85
2022-08-27T15:10:19.979Z,36.27
2022-08-27T15:12:50.879Z,40.18
2022-08-27T15:15:23.597Z,40.61
2022-08-27T15:17:56.388Z,38.80
2022-08-27T15:20:30.811Z,39.53
2022-08-27T15:23:04.319Z,39.27
2022-08-27T15:25:38.788Z,38.94
2022-08-27T15:28:11.605Z,39.69
2022-08-27T15:30:44.696Z,41.57
2022-08-27T15:33:18.258Z,38.92
2022-08-27T15:35:50.818Z,43.11
2022-08-27T15:38:21.966Z,42.07
2022-08-27T15:40:54.746Z,43.44
2022-08-27T15:43:28.397Z,46.81
2022-08-27T15:46:01.097Z,47.38
2022-08-27T15:48:35.866Z,45.28
2022-08-27T15:51:11.097Z,44.21
2022-08-27T15:53:44.750Z,47.96
2022-08-27T15:56:17.510Z,52.61
2022-08-27T15:58:49.876Z,53.88
2022-08-27T16:01:28.914Z,57.90
2022-08-27T16:04:02.598Z,58.85
2022-08-27T16:06:36.536Z,58.74
2022-08-27T16:09:08.956Z,62.59
2022-08-27T16:11:41.317Z,62.90
2022-08-27T16:14:14.436Z,62.65
2022-08-27T16:16:50.562Z,62.96
2022-08-27T16:19:24.089Z,65.03
2022-08-27T16:21:57.838Z,65.13
2022-08-27T16:24:30.479Z,66.03
2022-08-27T16:27:03.060Z,69.15
2022-08-27T16:29:33.678Z,67.27
2022-08-27T16:32:06.458Z,68.11
2022-08-27T16:34:41.286Z,67.93
2022-08-27T16:37:13.537Z,68.37
2022-08-27T16:39:47.116Z,68.85
2022-08-27T16:42:19.400Z,69.53
2022-08-27T16:44:51.796Z,71.76
2022-08-27T16:47:24.098Z,72.76
2022-08-27T16:50:24.160Z,74.23
2022-08-27T16:53:01.364Z,74.76
2022-08-27T16:55:38.095Z,73.84
2022-08-27T16:58:16.336Z,74.54
2022-08-27T17:00:52.066Z,75.50
2022-08-27T17:03:26.368Z,76.19
2022-08-27T17:05:58.976Z,77.17
2022-08-27T17:08:31.560Z,76.70
2022-08-27T17:11:12.677Z,79.58
2022-08-27T17:13:49.647Z,79.22
2022-08-27T17:16:25.098Z,80.64
2022-08-27T17:18:58.656Z,78.55
2022-08-27T17:21:32.928Z,78.19
2022-08-27T17:24:12.377Z,78.09
2022-08-27T17:26:45.597Z,78.35
2022-08-27T17:29:16.018Z,77.97
2022-08-27T17:31:48.349Z,78.18
2022-08-27T17:34:25.179Z,78.37
2022-08-27T17:36:57.901Z,79.97
2022-08-27T17:39:31.696Z,79.62
2022-08-27T17:42:04.168Z,80.82
2022-08-27T17:44:39.279Z,81.32
2022-08-27T17:47:12.736Z,81.23
2022-08-27T17:49:45.816Z,81.51
2022-08-27T17:52:19.126Z,82.05
2022-08-27T17:54:54.474Z,79.80
2022-08-27T17:57:28.827Z,81.57
2022-08-27T18:00:04.802Z,77.43
2022-08-27T18:02:42.747Z,77.79
2022-08-27T18:05:17.205Z,77.88
2022-08-27T18:07:50.589Z,76.30
2022-08-27T18:10:25.099Z,76.10
2022-08-27T18:12:58.752Z,75.74
2022-08-27T18:15:34.606Z,76.33
2022-08-27T18:18:11.790Z,75.69
2022-08-27T18:20:46.298Z,73.77
2022-08-27T18:23:19.659Z,72.45
2022-08-27T18:25:52.438Z,72.04
2022-08-27T18:28:24.977Z,71.79
2022-08-27T18:30:57.779Z,72.30
2022-08-27T18:33:30.466Z,74.73
2022-08-27T18:36:03.226Z,76.88
2022-08-27T18:38:38.038Z,77.49
2022-08-27T18:41:11.289Z,79.20
2022-08-27T18:43:43.887Z,80.80
2022-08-27T18:46:17.506Z,81.70
2022-08-27T18:48:51.699Z,82.56
2022-08-27T18:51:24.310Z,83.39
2022-08-27T18:53:56.756Z,82.57
2022-08-27T18:56:31.646Z,83.49
2022-08-27T18:59:04.818Z,83.99
2022-08-27T19:01:38.098Z,84.16
2022-08-27T19:04:14.768Z,84.91
2022-08-27T19:06:47.619Z,84.65
2022-08-27T19:09:22.969Z,84.47
2022-08-27T19:11:56.258Z,84.56
2022-08-27T19:14:29.447Z,84.58
2022-08-27T19:17:03.658Z,85.99
2022-08-27T19:19:36.920Z,89.60
2022-08-27T19:22:13.211Z,89.84
2022-08-27T19:24:51.727Z,89.69
2022-08-27T19:27:29.404Z,88.24
2022-08-27T19:30:02.505Z,89.51
2022-08-27T19:32:36.055Z,90.36
2022-08-27T19:35:12.307Z,89.75
2022-08-27T19:37:53.457Z,90.61
2022-08-27T19:40:27.109Z,91.38
2022-08-27T19:42:58.066Z,92.51
2022-08-27T19:45:30.390Z,93.70
2022-08-27T19:48:04.797Z,93.00
2022-08-27T19:50:39.978Z,94.66
2022-08-27T19:53:13.293Z,97.07
2022-08-27T19:55:48.737Z,96.74
2022-08-27T19:58:22.920Z,96.49
2022-08-27T20:00:56.041Z,96.49
2022-08-27T20:03:30.518Z,96.11
2022-08-27T20:06:03.367Z,93.89
2022-08-27T20:08:35.976Z,92.66
2022-08-27T20:11:07.918Z,91.03
2022-08-27T20:13:40.177Z,90.49
2022-08-27T20:16:23.434Z,89.47
2022-08-27T20:19:00.074Z,87.44
2022-08-27T20:21:34.227Z,86.18
2022-08-27T20:24:07.528Z,86.56
2022-08-27T20:26:39.994Z,85.72
2022-08-27T20:29:15.078Z,84.72
2022-08-27T20:32:05.320Z,85.96
2022-08-27T20:34:37.877Z,86.67
2022-08-27T20:37:10.458Z,87.19
2022-08-27T20:39:43.878Z,86.66
2022-08-27T20:42:16.522Z,85.13
2022-08-27T20:44:49.718Z,84.16
2022-08-27T20:47:27.807Z,82.70
2022-08-27T20:50:01.644Z,83.33
2022-08-27T20:52:35.944Z,81.38
2022-08-27T20:55:10.486Z,79.65
2022-08-27T20:58:06.722Z,79.31
2022-08-27T21:00:42.072Z,77.59
2022-08-27T21:03:16.894Z,76.33
2022-08-27T21:05:49.670Z,75.54
2022-08-27T21:08:24.827Z,75.60
2022-08-27T21:10:58.808Z,74.57
2022-08-27T21:13:32.236Z,74.72
2022-08-27T21:16:04.706Z,75.26
2022-08-27T21:18:37.256Z,74.51
2022-08-27T21:21:10.865Z,74.00
2022-08-27T21:23:43.375Z,73.38
2022-08-27T21:26:16.015Z,73.61
2022-08-27T21:28:48.787Z,72.60
2022-08-27T21:31:28.798Z,72.28
2022-08-27T21:34:01.337Z,72.83
2022-08-27T21:36:34.077Z,73.83
2022-08-27T21:39:05.047Z,74.81
2022-08-27T21:41:37.753Z,75.56
2022-08-27T21:44:08.575Z,76.11
2022-08-27T21:46:39.064Z,76.56
2022-08-27T21:49:09.798Z,76.37
2022-08-27T21:51:42.619Z,77.53
2022-08-27T21:54:13.098Z,78.03
2022-08-27T21:56:43.926Z,78.61
2022-08-27T21:59:14.909Z,79.76
2022-08-27T22:01:45.262Z,82.48
2022-08-27T22:04:16.078Z,82.74
2022-08-27T22:06:46.456Z,84.10
2022-08-27T22:09:16.816Z,83.06
2022-08-27T22:11:47.923Z,84.24
2022-08-27T22:14:18.311Z,82.75
2022-08-27T22:16:49.002Z,80.76
2022-08-27T22:19:19.759Z,82.51
2022-08-27T22:21:51.757Z,84.62
2022-08-27T22:24:22.427Z,87.71
2022-08-27T22:26:52.718Z,88.87
2022-08-27T22:29:24.746Z,86.28
2022-08-27T22:31:55.057Z,84.35
2022-08-27T22:34:25.386Z,88.28
2022-08-27T22:36:55.625Z,90.37
2022-08-27T22:39:26.067Z,89.68
2022-08-27T22:41:58.037Z,88.90
2022-08-27T22:44:30.735Z,88.28
2022-08-27T22:47:01.131Z,88.97
2022-08-27T22:49:31.627Z,86.05
2022-08-27T22:52:01.960Z,90.01
2022-08-27T22:54:32.507Z,94.45
2022-08-27T22:57:02.785Z,93.75
2022-08-27T22:59:33.228Z,94.26
2022-08-27T23:02:07.348Z,94.93
2022-08-27T23:04:53.991Z,95.52
2022-08-27T23:07:25.695Z,93.67
2022-08-27T23:09:55.986Z,94.21
2022-08-27T23:12:26.376Z,93.64
2022-08-27T23:14:56.978Z,91.49
2022-08-27T23:17:27.197Z,92.62
2022-08-27T23:19:59.377Z,97.19
2022-08-27T23:22:29.906Z,96.88
2022-08-27T23:25:17.579Z,96.10
2022-08-27T23:27:47.939Z,95.78
2022-08-27T23:30:18.833Z,94.45
2022-08-27T23:32:53.689Z,94.92
2022-08-27T23:35:26.585Z,97.90
2022-08-27T23:37:57.607Z,100.00
2022-08-27T23:40:28.952Z,100.00
2022-08-27T23:42:59.725Z,100.00
2022-08-27T23:45:31.088Z,99.68
2022-08-27T23:48:01.363Z,100.00
2022-08-27T23:50:34.161Z,100.00
2022-08-27T23:53:05.415Z,100.00
2022-08-27T23:55:36.705Z,100.00
2022-08-27T23:58:07.897Z,100.00
